sensor_id;sensor_type;location;lat;lon;timestamp;pressure;altitude;pressure_sealevel;temperature;humidity
7376;BME280;3728;42.266;24.944;2022-12-10T00:01:44;99193.47;;;9.57;100.00
7376;BME280;3728;42.266;24.944;2022-12-10T00:04:12;99188.75;;;9.68;100.00
7376;BME280;3728;42.266;24.944;2022-12-10T00:06:41;99189.78;;;9.58;100.00
7376;BME280;3728;42.266;24.944;2022-12-10T00:09:12;99188.41;;;9.60;100.00
7376;BME280;3728;42.266;24.944;2022-12-10T00:11:44;99178.72;;;9.61;100.00
7376;BME280;3728;42.266;24.944;2022-12-10T00:14:12;99187.53;;;9.74;100.00
7376;BME280;3728;42.266;24.944;2022-12-10T00:16:40;99165.47;;;9.49;100.00
7376;BME280;3728;42.266;24.944;2022-12-10T00:19:08;99171.94;;;9.51;100.00
7376;BME280;3728;42.266;24.944;2022-12-10T00:21:36;99178.66;;;9.44;100.00
7376;BME280;3728;42.266;24.944;2022-12-10T00:24:05;99185.47;;;9.53;100.00
7376;BME280;3728;42.266;24.944;2022-12-10T00:26:36;99159.34;;;9.31;100.00
7376;BME280;3728;42.266;24.944;2022-12-10T00:29:07;99162.34;;;9.47;100.00
7376;BME280;3728;42.266;24.944;2022-12-10T00:31:37;99150.66;;;9.44;100.00
7376;BME280;3728;42.266;24.944;2022-12-10T00:34:07;99147.28;;;9.44;100.00
7376;BME280;3728;42.266;24.944;2022-12-10T00:36:44;99148.81;;;9.45;100.00
7376;BME280;3728;42.266;24.944;2022-12-10T00:39:16;99140.50;;;9.43;100.00
7376;BME280;3728;42.266;24.944;2022-12-10T00:41:46;99146.00;;;9.33;100.00
7376;BME280;3728;42.266;24.944;2022-12-10T00:44:14;99181.38;;;9.70;100.00
7376;BME280;3728;42.266;24.944;2022-12-10T00:46:42;99190.38;;;9.86;100.00
7376;BME280;3728;42.266;24.944;2022-12-10T00:49:10;99167.53;;;9.69;100.00
7376;BME280;3728;42.266;24.944;2022-12-10T00:51:38;99184.84;;;9.56;100.00
7376;BME280;3728;42.266;24.944;2022-12-10T00:54:07;99189.78;;;9.58;100.00
7376;BME280;3728;42.266;24.944;2022-12-10T00:56:35;99188.41;;;9.60;100.00
7376;BME280;3728;42.266;24.944;2022-12-10T00:59:03;99176.38;;;9.51;100.00
7376;BME280;3728;42.266;24.944;2022-12-10T01:01:34;99179.69;;;9.65;100.00
7376;BME280;3728;42.266;24.944;2022-12-10T01:04:06;99188.28;;;9.66;100.00
7376;BME280;3728;42.266;24.944;2022-12-10T01:06:42;99185.91;;;9.86;100.00
7376;BME280;3728;42.266;24.944;2022-12-10T01:09:17;99175.47;;;9.95;100.00
7376;BME280;3728;42.266;24.944;2022-12-10T01:11:53;99158.13;;;9.68;100.00
7376;BME280;3728;42.266;24.944;2022-12-10T01:14:32;99159.59;;;9.52;100.00
7376;BME280;3728;42.266;24.944;2022-12-10T01:17:03;99159.66;;;9.30;100.00
7376;BME280;3728;42.266;24.944;2022-12-10T01:19:32;99165.97;;;9.29;100.00
7376;BME280;3728;42.266;24.944;2022-12-10T01:22:01;99167.03;;;9.28;100.00
7376;BME280;3728;42.266;24.944;2022-12-10T01:24:29;99163.88;;;9.39;100.00
7376;BME280;3728;42.266;24.944;2022-12-10T01:26:57;99158.13;;;9.29;100.00
7376;BME280;3728;42.266;24.944;2022-12-10T01:29:26;99149.94;;;9.22;100.00
7376;BME280;3728;42.266;24.944;2022-12-10T01:31:55;99143.66;;;9.23;100.00
7376;BME280;3728;42.266;24.944;2022-12-10T01:34:24;99152.66;;;9.39;100.00
7376;BME280;3728;42.266;24.944;2022-12-10T01:36:55;99150.88;;;9.26;100.00
7376;BME280;3728;42.266;24.944;2022-12-10T01:39:24;99143.19;;;9.21;100.00
7376;BME280;3728;42.266;24.944;2022-12-10T01:41:54;99132.56;;;9.26;100.00
7376;BME280;3728;42.266;24.944;2022-12-10T01:46:52;99131.44;;;9.40;100.00
7376;BME280;3728;42.266;24.944;2022-12-10T01:49:26;99133.94;;;9.23;100.00
7376;BME280;3728;42.266;24.944;2022-12-10T01:52:06;99137.00;;;9.47;100.00
7376;BME280;3728;42.266;24.944;2022-12-10T01:54:43;99123.66;;;9.18;100.00
7376;BME280;3728;42.266;24.944;2022-12-10T01:57:29;99120.50;;;9.08;100.00
7376;BME280;3728;42.266;24.944;2022-12-10T02:00:00;99125.72;;;9.08;100.00
7376;BME280;3728;42.266;24.944;2022-12-10T02:02:47;99120.28;;;8.95;100.00
7376;BME280;3728;42.266;24.944;2022-12-10T02:05:42;99110.19;;;9.03;100.00
7376;BME280;3728;42.266;24.944;2022-12-10T02:08:26;99108.09;;;9.13;100.00
7376;BME280;3728;42.266;24.944;2022-12-10T02:11:31;99106.75;;;9.24;100.00
7376;BME280;3728;42.266;24.944;2022-12-10T02:14:10;99108.56;;;9.15;100.00
7376;BME280;3728;42.266;24.944;2022-12-10T02:16:47;99099.69;;;9.25;100.00
7376;BME280;3728;42.266;24.944;2022-12-10T02:22:17;99090.84;;;9.04;100.00
7376;BME280;3728;42.266;24.944;2022-12-10T02:24:47;99094.03;;;9.01;100.00
7376;BME280;3728;42.266;24.944;2022-12-10T02:30:30;99099.34;;;9.18;100.00
7376;BME280;3728;42.266;24.944;2022-12-10T02:33:01;99098.16;;;9.24;100.00
7376;BME280;3728;42.266;24.944;2022-12-10T02:35:33;99099.47;;;9.13;100.00
7376;BME280;3728;42.266;24.944;2022-12-10T02:38:23;99092.66;;;9.03;100.00
7376;BME280;3728;42.266;24.944;2022-12-10T02:41:04;99097.09;;;9.25;100.00
7376;BME280;3728;42.266;24.944;2022-12-10T02:43:35;99105.84;;;9.29;100.00
7376;BME280;3728;42.266;24.944;2022-12-10T02:46:04;99104.88;;;9.16;100.00
7376;BME280;3728;42.266;24.944;2022-12-10T02:48:34;99112.19;;;9.06;100.00
7376;BME280;3728;42.266;24.944;2022-12-10T02:51:02;99107.41;;;8.99;100.00
7376;BME280;3728;42.266;24.944;2022-12-10T02:53:30;99097.84;;;8.94;100.00
7376;BME280;3728;42.266;24.944;2022-12-10T03:01:57;99092.88;;;9.46;100.00
7376;BME280;3728;42.266;24.944;2022-12-10T03:08:05;99084.69;;;9.39;100.00
7376;BME280;3728;42.266;24.944;2022-12-10T03:10:45;99074.66;;;9.80;100.00
7376;BME280;3728;42.266;24.944;2022-12-10T03:16:23;99082.53;;;9.41;100.00
7376;BME280;3728;42.266;24.944;2022-12-10T03:18:56;99086.38;;;9.35;100.00
7376;BME280;3728;42.266;24.944;2022-12-10T03:21:26;99076.75;;;9.61;100.00
7376;BME280;3728;42.266;24.944;2022-12-10T03:23:54;99079.91;;;9.32;100.00
7376;BME280;3728;42.266;24.944;2022-12-10T03:26:22;99083.78;;;9.35;100.00
7376;BME280;3728;42.266;24.944;2022-12-10T03:28:56;99076.28;;;9.59;100.00
7376;BME280;3728;42.266;24.944;2022-12-10T03:31:37;99078.09;;;9.41;100.00
7376;BME280;3728;42.266;24.944;2022-12-10T03:34:07;99072.66;;;9.77;100.00
7376;BME280;3728;42.266;24.944;2022-12-10T03:36:38;99067.84;;;9.53;100.00
7376;BME280;3728;42.266;24.944;2022-12-10T03:39:07;99064.06;;;9.37;100.00
7376;BME280;3728;42.266;24.944;2022-12-10T03:41:34;99066.41;;;9.39;100.00
7376;BME280;3728;42.266;24.944;2022-12-10T03:44:02;99066.41;;;9.39;100.00
7376;BME280;3728;42.266;24.944;2022-12-10T03:46:30;99062.09;;;9.43;100.00
7376;BME280;3728;42.266;24.944;2022-12-10T03:49:00;99057.47;;;9.40;100.00
7376;BME280;3728;42.266;24.944;2022-12-10T03:51:28;99056.75;;;9.48;100.00
7376;BME280;3728;42.266;24.944;2022-12-10T03:53:56;99054.19;;;9.26;100.00
7376;BME280;3728;42.266;24.944;2022-12-10T03:56:23;99052.81;;;9.20;100.00
7376;BME280;3728;42.266;24.944;2022-12-10T03:58:51;99061.38;;;9.51;100.00
7376;BME280;3728;42.266;24.944;2022-12-10T04:01:20;99058.38;;;9.27;100.00
7376;BME280;3728;42.266;24.944;2022-12-10T04:03:47;99051.66;;;9.43;100.00
7376;BME280;3728;42.266;24.944;2022-12-10T04:06:17;99054.88;;;9.40;100.00
7376;BME280;3728;42.266;24.944;2022-12-10T04:08:46;99064.13;;;9.46;100.00
7376;BME280;3728;42.266;24.944;2022-12-10T04:11:23;99069.63;;;9.36;100.00
7376;BME280;3728;42.266;24.944;2022-12-10T04:13:50;99071.09;;;9.20;100.00
7376;BME280;3728;42.266;24.944;2022-12-10T04:16:37;99068.84;;;9.05;100.00
7376;BME280;3728;42.266;24.944;2022-12-10T04:19:08;99069.28;;;8.98;100.00
7376;BME280;3728;42.266;24.944;2022-12-10T04:21:38;99066.47;;;9.17;100.00
7376;BME280;3728;42.266;24.944;2022-12-10T04:24:29;99050.84;;;8.94;100.00
7376;BME280;3728;42.266;24.944;2022-12-10T04:29:52;99064.13;;;9.07;100.00
7376;BME280;3728;42.266;24.944;2022-12-10T04:32:21;99067.88;;;8.92;100.00
7376;BME280;3728;42.266;24.944;2022-12-10T04:34:49;99064.19;;;8.93;100.00
7376;BME280;3728;42.266;24.944;2022-12-10T04:37:18;99065.75;;;8.94;100.00
7376;BME280;3728;42.266;24.944;2022-12-10T04:39:47;99060.31;;;9.13;100.00
7376;BME280;3728;42.266;24.944;2022-12-10T04:42:17;99058.97;;;9.24;100.00
7376;BME280;3728;42.266;24.944;2022-12-10T04:44:45;99066.03;;;9.23;100.00
7376;BME280;3728;42.266;24.944;2022-12-10T04:47:13;99071.13;;;9.28;100.00
7376;BME280;3728;42.266;24.944;2022-12-10T04:49:41;99063.31;;;9.37;100.00
7376;BME280;3728;42.266;24.944;2022-12-10T04:52:12;99062.88;;;9.43;100.00
7376;BME280;3728;42.266;24.944;2022-12-10T04:54:42;99072.44;;;9.56;100.00
7376;BME280;3728;42.266;24.944;2022-12-10T04:57:10;99068.59;;;9.54;100.00
7376;BME280;3728;42.266;24.944;2022-12-10T04:59:38;99071.50;;;9.44;100.00
7376;BME280;3728;42.266;24.944;2022-12-10T05:02:06;99067.00;;;9.36;100.00
7376;BME280;3728;42.266;24.944;2022-12-10T05:04:34;99063.91;;;9.25;100.00
7376;BME280;3728;42.266;24.944;2022-12-10T05:07:01;99070.13;;;9.46;100.00
7376;BME280;3728;42.266;24.944;2022-12-10T05:09:29;99056.75;;;9.56;100.00
7376;BME280;3728;42.266;24.944;2022-12-10T05:11:57;99065.25;;;9.62;100.00
7376;BME280;3728;42.266;24.944;2022-12-10T05:14:25;99066.13;;;9.49;100.00
7376;BME280;3728;42.266;24.944;2022-12-10T05:16:52;99058.25;;;9.40;100.00
7376;BME280;3728;42.266;24.944;2022-12-10T05:19:20;99055.16;;;9.30;100.00
7376;BME280;3728;42.266;24.944;2022-12-10T05:21:49;99070.63;;;9.18;100.00
7376;BME280;3728;42.266;24.944;2022-12-10T05:24:36;99053.44;;;9.25;100.00
7376;BME280;3728;42.266;24.944;2022-12-10T05:27:04;99044.50;;;9.18;100.00
7376;BME280;3728;42.266;24.944;2022-12-10T05:29:32;99044.19;;;9.19;100.00
7376;BME280;3728;42.266;24.944;2022-12-10T05:32:00;99048.97;;;9.26;100.00
7376;BME280;3728;42.266;24.944;2022-12-10T05:34:29;99060.28;;;9.52;100.00
7376;BME280;3728;42.266;24.944;2022-12-10T05:36:57;99061.06;;;9.61;100.00
7376;BME280;3728;42.266;24.944;2022-12-10T05:39:25;99067.38;;;9.51;100.00
7376;BME280;3728;42.266;24.944;2022-12-10T05:41:54;99065.88;;;9.68;100.00
7376;BME280;3728;42.266;24.944;2022-12-10T05:44:21;99054.72;;;9.45;100.00
7376;BME280;3728;42.266;24.944;2022-12-10T05:46:49;99046.84;;;9.28;100.00
7376;BME280;3728;42.266;24.944;2022-12-10T05:49:17;99052.34;;;9.26;100.00
7376;BME280;3728;42.266;24.944;2022-12-10T05:51:44;99071.31;;;9.40;100.00
7376;BME280;3728;42.266;24.944;2022-12-10T05:54:12;99072.44;;;9.48;100.00
7376;BME280;3728;42.266;24.944;2022-12-10T05:56:40;99068.84;;;9.35;100.00
7376;BME280;3728;42.266;24.944;2022-12-10T05:59:09;99062.16;;;9.51;100.00
7376;BME280;3728;42.266;24.944;2022-12-10T06:01:42;99070.47;;;9.62;100.00
7376;BME280;3728;42.266;24.944;2022-12-10T06:04:11;99065.03;;;9.50;100.00
7376;BME280;3728;42.266;24.944;2022-12-10T06:06:39;99053.59;;;9.29;100.00
7376;BME280;3728;42.266;24.944;2022-12-10T06:09:11;99051.78;;;9.29;100.00
7376;BME280;3728;42.266;24.944;2022-12-10T06:11:40;99051.63;;;9.34;100.00
7376;BME280;3728;42.266;24.944;2022-12-10T06:14:09;99047.50;;;9.42;100.00
7376;BME280;3728;42.266;24.944;2022-12-10T06:16:39;99035.03;;;9.39;100.00
7376;BME280;3728;42.266;24.944;2022-12-10T06:19:08;99040.94;;;9.53;100.00
7376;BME280;3728;42.266;24.944;2022-12-10T06:21:36;99038.31;;;9.61;100.00
7376;BME280;3728;42.266;24.944;2022-12-10T06:24:06;99029.56;;;9.57;100.00
7376;BME280;3728;42.266;24.944;2022-12-10T06:26:34;99040.16;;;9.61;100.00
7376;BME280;3728;42.266;24.944;2022-12-10T06:29:02;99034.78;;;9.57;100.00
7376;BME280;3728;42.266;24.944;2022-12-10T06:31:31;99035.00;;;9.87;100.00
7376;BME280;3728;42.266;24.944;2022-12-10T06:33:58;99028.81;;;9.83;100.00
7376;BME280;3728;42.266;24.944;2022-12-10T06:36:26;99020.06;;;9.70;100.00
7376;BME280;3728;42.266;24.944;2022-12-10T06:38:54;99020.94;;;9.57;100.00
7376;BME280;3728;42.266;24.944;2022-12-10T06:41:22;99022.94;;;9.60;100.00
7376;BME280;3728;42.266;24.944;2022-12-10T06:43:49;99027.91;;;9.70;100.00
7376;BME280;3728;42.266;24.944;2022-12-10T06:46:19;99042.22;;;9.90;100.00
7376;BME280;3728;42.266;24.944;2022-12-10T06:48:48;99053.88;;;9.75;100.00
7376;BME280;3728;42.266;24.944;2022-12-10T06:51:16;99064.88;;;10.03;100.00
7376;BME280;3728;42.266;24.944;2022-12-10T06:53:44;99055.16;;;9.95;100.00
7376;BME280;3728;42.266;24.944;2022-12-10T06:56:16;99061.00;;;10.09;100.00
7376;BME280;3728;42.266;24.944;2022-12-10T06:58:45;99054.69;;;10.01;100.00
7376;BME280;3728;42.266;24.944;2022-12-10T07:01:21;99058.13;;;10.45;100.00
7376;BME280;3728;42.266;24.944;2022-12-10T07:03:54;99063.16;;;9.98;100.00
7376;BME280;3728;42.266;24.944;2022-12-10T07:06:23;99050.66;;;9.78;100.00
7376;BME280;3728;42.266;24.944;2022-12-10T07:08:52;99053.75;;;9.89;100.00
7376;BME280;3728;42.266;24.944;2022-12-10T07:11:22;99041.75;;;9.79;100.00
7376;BME280;3728;42.266;24.944;2022-12-10T07:13:51;99042.53;;;9.88;100.00
7376;BME280;3728;42.266;24.944;2022-12-10T07:16:21;99046.97;;;9.79;100.00
7376;BME280;3728;42.266;24.944;2022-12-10T07:18:54;99043.41;;;9.67;100.00
7376;BME280;3728;42.266;24.944;2022-12-10T07:21:29;99043.16;;;9.94;100.00
7376;BME280;3728;42.266;24.944;2022-12-10T07:24:04;99034.44;;;10.24;100.00
7376;BME280;3728;42.266;24.944;2022-12-10T07:26:36;99027.00;;;10.00;100.00
7376;BME280;3728;42.266;24.944;2022-12-10T07:29:05;99030.41;;;10.01;100.00
7376;BME280;3728;42.266;24.944;2022-12-10T07:31:37;99031.00;;;10.06;100.00
7376;BME280;3728;42.266;24.944;2022-12-10T07:34:05;99023.63;;;10.43;100.00
7376;BME280;3728;42.266;24.944;2022-12-10T07:36:32;99017.03;;;10.19;100.00
7376;BME280;3728;42.266;24.944;2022-12-10T07:39:00;99026.56;;;10.15;100.00
7376;BME280;3728;42.266;24.944;2022-12-10T07:41:27;99020.63;;;10.70;100.00
7376;BME280;3728;42.266;24.944;2022-12-10T07:43:57;99021.00;;;10.43;100.00
7376;BME280;3728;42.266;24.944;2022-12-10T07:46:30;99018.53;;;10.38;100.00
7376;BME280;3728;42.266;24.944;2022-12-10T07:49:02;99016.53;;;10.52;100.00
7376;BME280;3728;42.266;24.944;2022-12-10T07:51:30;99005.09;;;10.65;100.00
7376;BME280;3728;42.266;24.944;2022-12-10T07:53:58;99010.03;;;10.58;100.00
7376;BME280;3728;42.266;24.944;2022-12-10T07:56:26;99014.44;;;10.83;100.00
7376;BME280;3728;42.266;24.944;2022-12-10T07:58:56;99020.63;;;10.70;100.00
7376;BME280;3728;42.266;24.944;2022-12-10T08:01:25;99022.16;;;10.88;100.00
7376;BME280;3728;42.266;24.944;2022-12-10T08:03:54;99014.66;;;10.61;100.00
7376;BME280;3728;42.266;24.944;2022-12-10T08:06:26;99026.13;;;10.94;100.00
7376;BME280;3728;42.266;24.944;2022-12-10T08:08:55;99032.63;;;10.88;100.00
7376;BME280;3728;42.266;24.944;2022-12-10T08:11:25;99023.94;;;10.96;100.00
7376;BME280;3728;42.266;24.944;2022-12-10T08:13:54;99026.00;;;10.82;100.00
7376;BME280;3728;42.266;24.944;2022-12-10T08:16:25;99036.63;;;10.77;100.00
7376;BME280;3728;42.266;24.944;2022-12-10T08:18:58;99045.25;;;10.86;100.00
7376;BME280;3728;42.266;24.944;2022-12-10T08:21:29;99036.25;;;11.04;100.00
7376;BME280;3728;42.266;24.944;2022-12-10T08:23:58;99033.06;;;10.90;100.00
7376;BME280;3728;42.266;24.944;2022-12-10T08:26:29;99029.75;;;10.64;100.00
7376;BME280;3728;42.266;24.944;2022-12-10T08:28:58;99023.75;;;10.55;100.00
7376;BME280;3728;42.266;24.944;2022-12-10T08:31:27;99023.63;;;10.43;100.00
7376;BME280;3728;42.266;24.944;2022-12-10T08:34:02;99028.66;;;10.65;100.00
7376;BME280;3728;42.266;24.944;2022-12-10T08:36:31;99019.38;;;11.22;100.00
7376;BME280;3728;42.266;24.944;2022-12-10T08:38:59;99009.22;;;10.83;100.00
7376;BME280;3728;42.266;24.944;2022-12-10T08:41:26;99009.09;;;10.71;100.00
7376;BME280;3728;42.266;24.944;2022-12-10T08:43:54;98997.53;;;10.72;100.00
7376;BME280;3728;42.266;24.944;2022-12-10T08:46:21;98990.16;;;10.74;100.00
7376;BME280;3728;42.266;24.944;2022-12-10T08:48:50;98992.22;;;10.89;100.00
7376;BME280;3728;42.266;24.944;2022-12-10T08:51:19;98987.97;;;11.14;100.00
7376;BME280;3728;42.266;24.944;2022-12-10T08:53:47;98976.16;;;10.99;100.00
7376;BME280;3728;42.266;24.944;2022-12-10T08:56:35;98975.69;;;11.06;100.00
7376;BME280;3728;42.266;24.944;2022-12-10T08:59:03;98966.25;;;11.05;100.00
7376;BME280;3728;42.266;24.944;2022-12-10T09:01:30;98969.22;;;11.03;100.00
7376;BME280;3728;42.266;24.944;2022-12-10T09:03:58;98953.50;;;11.32;100.00
7376;BME280;3728;42.266;24.944;2022-12-10T09:06:28;98962.03;;;11.21;100.00
7376;BME280;3728;42.266;24.944;2022-12-10T09:08:57;98964.09;;;11.36;100.00
7376;BME280;3728;42.266;24.944;2022-12-10T09:11:30;98969.78;;;11.38;100.00
7376;BME280;3728;42.266;24.944;2022-12-10T09:13:59;98969.09;;;11.79;100.00
7376;BME280;3728;42.266;24.944;2022-12-10T09:16:36;98949.03;;;11.53;100.00
7376;BME280;3728;42.266;24.944;2022-12-10T09:19:06;98953.00;;;11.59;100.00
7376;BME280;3728;42.266;24.944;2022-12-10T09:21:36;98963.75;;;11.66;100.00
7376;BME280;3728;42.266;24.944;2022-12-10T09:24:04;98965.34;;;11.59;100.00
7376;BME280;3728;42.266;24.944;2022-12-10T09:26:32;98952.31;;;11.71;100.00
7376;BME280;3728;42.266;24.944;2022-12-10T09:29:00;98949.91;;;11.87;100.00
7376;BME280;3728;42.266;24.944;2022-12-10T09:31:29;98934.78;;;11.63;100.00
7376;BME280;3728;42.266;24.944;2022-12-10T09:33:59;98938.56;;;11.53;100.00
7376;BME280;3728;42.266;24.944;2022-12-10T09:36:28;98932.75;;;11.68;100.00
7376;BME280;3728;42.266;24.944;2022-12-10T10:10:00;98864.16;;;11.58;100.00
7376;BME280;3728;42.266;24.944;2022-12-10T10:46:34;98816.25;;;12.26;100.00
7376;BME280;3728;42.266;24.944;2022-12-10T13:36:00;98627.25;;;12.26;100.00
7376;BME280;3728;42.266;24.944;2022-12-10T16:55:06;98464.66;;;10.90;100.00
7376;BME280;3728;42.266;24.944;2022-12-10T18:41:00;98340.16;;;10.92;100.00
7376;BME280;3728;42.266;24.944;2022-12-10T19:42:06;98255.16;;;11.18;100.00
7376;BME280;3728;42.266;24.944;2022-12-10T21:06:21;98093.72;;;11.29;100.00
7376;BME280;3728;42.266;24.944;2022-12-10T21:47:53;98025.47;;;10.63;100.00
7376;BME280;3728;42.266;24.944;2022-12-10T21:50:47;98017.91;;;10.89;100.00
7376;BME280;3728;42.266;24.944;2022-12-10T22:02:40;97992.47;;;10.89;100.00
7376;BME280;3728;42.266;24.944;2022-12-10T22:29:14;97951.59;;;10.54;100.00
7376;BME280;3728;42.266;24.944;2022-12-10T22:50:06;97919.94;;;10.59;100.00
7376;BME280;3728;42.266;24.944;2022-12-10T23:07:15;97851.53;;;10.60;100.00
